KMMT/MMT METAR and TAF weather

Enter ICAO airport designator
Station Type Date Time Source
KMMT METAR 2021/03/02 12:56 UTC NOAA

KMMT 021256Z 05007KT 10SM OVC190 08/M03 A3023 RMK AO2A SLP240 T00841035 $


Station Type Date Time Source
KMMT Decoded METAR 2021/03/02 12:56 UTC NOAA

McEntire Air National Guard Weather Facility Base, SC, United States (KMMT) 33-55N 080-48W
Mar 02, 2021 - 07:56 AM EST / 2021.03.02 1256 UTC
Wind: from the NE (050 degrees) at 8 MPH (7 KT):0
Visibility: 10 mile(s):0
Sky conditions: overcast
Temperature: 47.1 F (8.4 C)
Dew Point: 25.7 F (-3.5 C)
Relative Humidity: 42%
Pressure (altimeter): 30.23 in. Hg (1023 hPa)
ob: KMMT 021256Z 05007KT 10SM OVC190 08/M03 A3023 RMK AO2A SLP240 T00841035
cycle: 13

Station Type Date Time Source
KMMT TAF 2021/03/02 08:18 UTC NOAA

TAF TAF KMMT 020800Z 0208/0314 02006KT 9999 FEW150 QNH3010INS
BECMG 0214/0215 08012KT 9999 FEW080 SCT150 QNH3018INS
BECMG 0223/0224 VRB06KT 9999 FEW030 BKN050 QNH3021INS
BECMG 0304/0305 03006KT 8000 -RA SCT020 BKN030 QNH3004INS
BECMG 0308/0309 03006KT 4800 -RA BR SCT005 BKN008 QNH2998INS TX13/0221Z TN06/0306Z

Example: see airport list